createdAt,value
2022-11-05T00:00:29.914Z,8.93
2022-11-05T00:03:20.624Z,9.75
2022-11-05T00:06:11.989Z,9.85
2022-11-05T00:09:03.414Z,8.50
2022-11-05T00:11:53.212Z,9.68
2022-11-05T00:14:49.038Z,9.63
2022-11-05T00:17:21.349Z,10.13
2022-11-05T00:19:53.725Z,9.63
2022-11-05T00:22:44.613Z,10.32
2022-11-05T00:25:19.188Z,9.77
2022-11-05T00:27:53.098Z,9.52
2022-11-05T00:30:26.955Z,9.80
2022-11-05T00:33:02.353Z,8.77
2022-11-05T00:35:34.704Z,8.77
2022-11-05T00:38:06.989Z,8.18
2022-11-05T00:40:40.079Z,8.38
2022-11-05T00:43:30.881Z,8.18
2022-11-05T00:46:03.252Z,8.60
2022-11-05T00:48:53.243Z,8.25
2022-11-05T00:51:25.615Z,8.10
2022-11-05T00:53:57.958Z,9.00
2022-11-05T00:56:30.966Z,7.60
2022-11-05T00:59:03.269Z,6.70
2022-11-05T01:01:35.750Z,7.55
2022-11-05T01:04:08.209Z,6.78
2022-11-05T01:06:40.521Z,6.95
2022-11-05T01:09:12.874Z,5.82
2022-11-05T01:11:45.873Z,6.00
2022-11-05T01:14:18.204Z,5.53
2022-11-05T01:16:50.523Z,6.18
2022-11-05T01:19:22.813Z,5.38
2022-11-05T01:21:55.187Z,5.57
2022-11-05T01:24:27.749Z,7.05
2022-11-05T01:27:00.787Z,6.53
2022-11-05T01:29:33.104Z,10.20
2022-11-05T01:32:05.580Z,11.38
2022-11-05T01:34:37.938Z,9.60
2022-11-05T01:37:10.342Z,9.32
2022-11-05T01:39:42.633Z,10.25
2022-11-05T01:42:21.138Z,10.05
2022-11-05T01:44:58.472Z,8.82
2022-11-05T01:47:41.356Z,9.05
2022-11-05T01:50:24.181Z,8.32
2022-11-05T01:53:02.374Z,9.77
2022-11-05T01:55:41.069Z,10.05
2022-11-05T01:58:18.097Z,10.65
2022-11-05T02:00:50.516Z,10.65
2022-11-05T02:03:23.613Z,11.10
2022-11-05T02:05:58.734Z,10.07
2022-11-05T02:08:45.784Z,9.15
2022-11-05T02:11:19.858Z,9.90
2022-11-05T02:13:52.913Z,9.07
2022-11-05T02:16:36.958Z,10.35
2022-11-05T02:19:49.266Z,9.68
2022-11-05T02:22:57.308Z,9.90
2022-11-05T02:25:57.260Z,9.93
2022-11-05T02:28:57.144Z,9.15
2022-11-05T02:31:38.779Z,10.40
2022-11-05T02:34:23.867Z,10.20
2022-11-05T02:37:01.957Z,9.75
2022-11-05T02:39:42.857Z,9.70
2022-11-05T02:42:29.686Z,10.63
2022-11-05T02:45:10.327Z,11.82
2022-11-05T02:47:47.331Z,11.80
2022-11-05T02:50:25.970Z,11.43
2022-11-05T02:53:01.963Z,11.43
2022-11-05T02:55:38.791Z,12.25
2022-11-05T02:58:11.535Z,10.07
2022-11-05T03:00:49.165Z,11.18
2022-11-05T03:03:34.333Z,10.82
2022-11-05T03:06:51.752Z,10.90
2022-11-05T03:09:42.991Z,12.07
2022-11-05T03:12:26.505Z,11.32
2022-11-05T03:15:10.974Z,11.57
2022-11-05T03:17:50.805Z,10.55
2022-11-05T03:20:27.932Z,10.98
2022-11-05T03:23:09.740Z,12.10
2022-11-05T03:25:48.291Z,10.50
2022-11-05T03:28:25.344Z,11.68
2022-11-05T03:30:58.704Z,11.25
2022-11-05T03:33:35.037Z,10.48
2022-11-05T03:36:15.451Z,11.88
2022-11-05T03:38:52.514Z,11.40
2022-11-05T03:41:26.530Z,11.10
2022-11-05T03:44:03.149Z,11.82
2022-11-05T03:46:41.812Z,11.05
2022-11-05T03:49:21.187Z,13.50
2022-11-05T03:51:58.609Z,12.88
2022-11-05T03:54:32.626Z,14.02
2022-11-05T03:57:08.788Z,13.65
2022-11-05T03:59:44.644Z,13.52
2022-11-05T04:02:19.455Z,12.82
2022-11-05T04:04:52.668Z,12.52
2022-11-05T04:07:44.000Z,12.63
2022-11-05T04:10:34.516Z,12.05
2022-11-05T04:13:24.398Z,12.15
2022-11-05T04:16:17.628Z,11.63
2022-11-05T04:18:49.970Z,12.90
2022-11-05T04:21:40.300Z,13.70
2022-11-05T04:24:14.022Z,13.50
2022-11-05T04:26:46.778Z,10.98
2022-11-05T04:29:36.950Z,9.82
2022-11-05T04:32:09.317Z,7.97
2022-11-05T04:34:41.738Z,8.75
2022-11-05T04:37:14.086Z,10.48
2022-11-05T04:39:47.076Z,9.73
2022-11-05T04:42:19.472Z,9.25
2022-11-05T04:44:51.835Z,8.80
2022-11-05T04:47:24.193Z,10.00
2022-11-05T04:49:56.573Z,10.10
2022-11-05T04:52:28.861Z,9.48
2022-11-05T04:55:01.908Z,8.55
2022-11-05T04:57:34.800Z,8.95
2022-11-05T05:00:08.957Z,8.65
2022-11-05T05:02:41.502Z,8.63
2022-11-05T05:05:14.115Z,10.98
2022-11-05T05:07:46.458Z,9.95
2022-11-05T05:12:58.936Z,10.30
2022-11-05T05:15:31.328Z,11.57
2022-11-05T05:18:03.929Z,12.07
2022-11-05T05:20:54.305Z,12.90
2022-11-05T05:23:26.784Z,10.80
2022-11-05T05:25:59.803Z,11.40
2022-11-05T05:28:32.142Z,10.27
2022-11-05T05:31:04.509Z,10.30
2022-11-05T05:33:36.886Z,9.80
2022-11-05T05:36:11.524Z,8.38
2022-11-05T05:38:44.028Z,8.93
2022-11-05T05:41:17.323Z,10.60
2022-11-05T05:43:50.232Z,10.68
2022-11-05T05:46:22.571Z,10.68
2022-11-05T05:48:54.909Z,14.25
2022-11-05T05:51:27.200Z,13.52
2022-11-05T05:53:59.525Z,14.63
2022-11-05T05:56:32.550Z,13.48
2022-11-05T05:59:05.873Z,11.90
2022-11-05T06:01:38.403Z,11.50
2022-11-05T06:04:10.944Z,12.27
2022-11-05T06:06:46.146Z,12.02
2022-11-05T06:09:18.581Z,13.65
2022-11-05T06:11:51.603Z,12.55
2022-11-05T06:14:24.006Z,10.82
2022-11-05T06:16:56.361Z,12.35
2022-11-05T06:19:28.756Z,11.65
2022-11-05T06:22:01.048Z,11.93
2022-11-05T06:24:33.416Z,11.63
2022-11-05T06:27:06.397Z,11.88
2022-11-05T06:29:38.765Z,11.60
2022-11-05T06:32:11.173Z,11.30
2022-11-05T06:34:43.532Z,11.20
2022-11-05T06:37:16.134Z,10.65
2022-11-05T06:39:48.602Z,11.80
2022-11-05T06:42:21.602Z,14.07
2022-11-05T06:44:53.976Z,15.50
2022-11-05T06:47:26.346Z,15.93
2022-11-05T06:49:58.725Z,14.45
2022-11-05T06:52:31.034Z,12.70
2022-11-05T06:55:03.865Z,12.25
2022-11-05T06:57:38.396Z,12.70
2022-11-05T07:00:11.476Z,10.65
2022-11-05T07:02:44.414Z,9.27
2022-11-05T07:05:17.136Z,9.38
2022-11-05T07:07:49.492Z,8.57
2022-11-05T07:10:21.894Z,8.50
2022-11-05T07:12:54.897Z,7.53
2022-11-05T07:15:27.226Z,7.35
2022-11-05T07:18:00.460Z,7.82
2022-11-05T07:20:34.444Z,7.53
2022-11-05T07:23:11.030Z,6.20
2022-11-05T07:25:43.688Z,7.38
2022-11-05T07:28:16.661Z,6.15
2022-11-05T07:30:48.974Z,6.57
2022-11-05T07:33:21.318Z,7.72
2022-11-05T07:35:55.735Z,7.30
2022-11-05T07:38:28.123Z,6.18
2022-11-05T07:41:00.553Z,6.95
2022-11-05T07:43:33.643Z,6.10
2022-11-05T07:46:09.814Z,6.35
2022-11-05T07:48:45.077Z,7.00
2022-11-05T07:51:17.409Z,8.48
2022-11-05T07:53:49.740Z,7.75
2022-11-05T07:56:22.359Z,8.55
2022-11-05T07:58:55.572Z,9.52
2022-11-05T08:01:28.039Z,10.00
2022-11-05T08:04:00.468Z,9.82
2022-11-05T08:06:32.893Z,9.60
2022-11-05T08:09:05.349Z,9.75
2022-11-05T08:11:37.708Z,10.25
2022-11-05T08:14:10.679Z,8.50
2022-11-05T08:16:43.129Z,7.88
2022-11-05T08:19:15.531Z,5.75
2022-11-05T08:21:47.964Z,6.32
2022-11-05T08:24:20.286Z,5.18
2022-11-05T08:26:53.078Z,4.65
2022-11-05T08:29:26.097Z,4.75
2022-11-05T08:31:58.525Z,5.82
2022-11-05T08:34:30.885Z,5.15
2022-11-05T08:37:03.548Z,4.40
2022-11-05T08:39:35.950Z,4.32
2022-11-05T08:42:08.333Z,6.15
2022-11-05T08:44:41.430Z,6.05
2022-11-05T08:47:13.814Z,4.72
2022-11-05T08:49:46.149Z,5.40
2022-11-05T08:52:18.510Z,5.07
2022-11-05T08:54:50.879Z,5.72
2022-11-05T08:57:23.277Z,19.23
2022-11-05T08:59:56.326Z,14.27
2022-11-05T09:02:28.794Z,6.78
2022-11-05T09:05:01.200Z,6.05
2022-11-05T09:07:33.668Z,5.75
2022-11-05T09:10:06.670Z,5.57
2022-11-05T09:12:39.069Z,6.28
2022-11-05T09:15:12.097Z,5.20
2022-11-05T09:17:44.529Z,5.00
2022-11-05T09:20:16.881Z,5.95
2022-11-05T09:22:49.259Z,5.30
2022-11-05T09:25:21.648Z,6.65
2022-11-05T09:27:54.041Z,7.20
2022-11-05T09:30:33.777Z,4.70
2022-11-05T09:33:06.189Z,4.70
2022-11-05T09:35:39.412Z,10.98
2022-11-05T09:38:12.334Z,7.28
2022-11-05T09:40:52.952Z,6.57
2022-11-05T09:43:31.880Z,4.43
2022-11-05T09:46:11.477Z,4.47
2022-11-05T09:48:47.758Z,3.78
2022-11-05T09:51:23.882Z,5.47
2022-11-05T09:53:59.174Z,10.82
2022-11-05T09:56:36.178Z,5.38
2022-11-05T09:59:16.809Z,4.95
2022-11-05T10:01:51.701Z,6.22
2022-11-05T10:04:25.769Z,6.80
2022-11-05T10:07:00.266Z,7.32
2022-11-05T10:09:37.616Z,5.30
2022-11-05T10:12:15.568Z,6.10
2022-11-05T10:14:55.718Z,5.90
2022-11-05T10:17:37.884Z,7.80
2022-11-05T10:20:19.557Z,6.22
2022-11-05T10:22:56.328Z,6.00
2022-11-05T10:25:31.724Z,13.35
2022-11-05T10:28:05.797Z,13.57
2022-11-05T10:30:38.349Z,8.68
2022-11-05T10:33:14.864Z,6.95
2022-11-05T10:35:50.660Z,8.07
2022-11-05T10:38:23.229Z,6.57
2022-11-05T10:41:08.609Z,6.97
2022-11-05T10:43:47.497Z,7.38
2022-11-05T10:46:29.732Z,7.95
2022-11-05T10:49:18.035Z,10.30
2022-11-05T10:51:56.058Z,7.70
2022-11-05T10:54:33.292Z,8.50
2022-11-05T10:57:27.281Z,10.65
2022-11-05T11:00:21.500Z,11.13
2022-11-05T11:02:57.883Z,9.77
2022-11-05T11:05:35.232Z,7.93
2022-11-05T11:08:22.514Z,8.45
2022-11-05T11:10:57.285Z,11.10
2022-11-05T11:13:49.748Z,11.40
2022-11-05T11:16:23.751Z,24.65
2022-11-05T11:18:58.544Z,14.02
2022-11-05T11:21:32.080Z,13.85
2022-11-05T11:24:06.346Z,11.80
2022-11-05T11:26:40.042Z,8.88
2022-11-05T11:29:16.142Z,7.70
2022-11-05T11:31:48.613Z,16.02
2022-11-05T11:34:28.617Z,8.90
2022-11-05T11:37:07.152Z,8.07
2022-11-05T11:39:42.468Z,6.50
2022-11-05T11:42:22.423Z,7.55
2022-11-05T11:44:58.426Z,8.32
2022-11-05T11:47:32.874Z,5.50
2022-11-05T11:50:05.742Z,6.15
2022-11-05T11:52:38.738Z,6.65
2022-11-05T11:55:21.863Z,6.05
2022-11-05T11:58:05.918Z,5.90
2022-11-05T12:00:47.949Z,6.05
2022-11-05T12:03:31.472Z,5.63
2022-11-05T12:06:23.805Z,5.65
2022-11-05T12:09:06.974Z,12.63
2022-11-05T12:11:46.570Z,16.45
2022-11-05T12:14:29.941Z,11.32
2022-11-05T12:17:16.429Z,10.48
2022-11-05T12:20:09.161Z,10.13
2022-11-05T12:23:01.352Z,10.10
2022-11-05T12:25:38.982Z,9.98
2022-11-05T12:28:25.738Z,10.40
2022-11-05T12:31:09.549Z,9.05
2022-11-05T12:33:50.945Z,7.78
2022-11-05T12:36:39.343Z,8.15
2022-11-05T12:39:53.812Z,8.87
2022-11-05T12:42:40.980Z,8.40
2022-11-05T12:45:27.040Z,7.57
2022-11-05T12:48:10.595Z,7.40
2022-11-05T12:50:45.472Z,9.13
2022-11-05T12:53:34.309Z,9.30
2022-11-05T12:56:13.895Z,7.78
2022-11-05T13:01:26.642Z,8.60
2022-11-05T13:04:05.938Z,9.75
2022-11-05T13:06:41.196Z,7.80
2022-11-05T13:09:18.792Z,10.02
2022-11-05T13:11:54.329Z,8.98
2022-11-05T13:14:30.979Z,8.35
2022-11-05T13:17:07.373Z,7.28
2022-11-05T13:19:45.335Z,9.57
2022-11-05T13:22:28.471Z,7.78
2022-11-05T13:25:05.638Z,7.70
2022-11-05T13:27:47.320Z,7.90
2022-11-05T13:30:25.830Z,8.90
2022-11-05T13:33:02.470Z,7.85
2022-11-05T13:35:41.247Z,8.15
2022-11-05T13:38:38.568Z,8.53
2022-11-05T13:41:25.557Z,7.40
2022-11-05T13:44:12.733Z,8.38
2022-11-05T13:47:11.738Z,7.82
2022-11-05T13:49:58.775Z,8.80
2022-11-05T13:52:56.003Z,6.93
2022-11-05T13:55:52.224Z,7.60
2022-11-05T13:59:00.088Z,7.53
2022-11-05T14:01:43.927Z,7.40
2022-11-05T14:04:27.840Z,14.77
2022-11-05T14:07:09.792Z,8.88
2022-11-05T14:09:43.700Z,8.85
2022-11-05T14:12:24.055Z,10.23
2022-11-05T14:15:02.667Z,13.88
2022-11-05T14:17:55.745Z,12.20
2022-11-05T14:20:59.547Z,9.95
2022-11-05T14:23:48.280Z,8.98
2022-11-05T14:26:23.100Z,9.10
2022-11-05T14:29:37.233Z,9.43
2022-11-05T14:32:25.682Z,11.38
2022-11-05T14:35:03.260Z,15.02
2022-11-05T14:37:40.912Z,14.20
2022-11-05T14:40:46.188Z,13.13
2022-11-05T14:43:22.145Z,11.32
2022-11-05T14:45:57.628Z,9.98
2022-11-05T14:48:37.715Z,10.13
2022-11-05T14:51:26.362Z,12.35
2022-11-05T14:54:03.336Z,13.50
2022-11-05T14:56:43.072Z,11.40
2022-11-05T14:59:50.413Z,13.02
2022-11-05T15:02:26.580Z,12.38
2022-11-05T15:05:37.746Z,13.18
2022-11-05T15:08:53.790Z,9.15
2022-11-05T15:11:32.173Z,10.85
2022-11-05T15:14:07.384Z,10.55
2022-11-05T15:16:43.165Z,25.70
2022-11-05T15:19:20.124Z,21.52
2022-11-05T15:21:56.732Z,23.27
2022-11-05T15:24:30.732Z,16.45
2022-11-05T15:27:11.400Z,12.77
2022-11-05T15:29:43.901Z,17.35
2022-11-05T15:32:18.048Z,13.40
2022-11-05T15:34:52.073Z,14.25
2022-11-05T15:37:25.994Z,13.75
2022-11-05T15:39:58.436Z,15.73
2022-11-05T15:42:31.495Z,13.52
2022-11-05T15:45:04.733Z,16.73
2022-11-05T15:47:37.239Z,11.68
2022-11-05T15:50:15.130Z,10.77
2022-11-05T15:52:49.514Z,10.80
2022-11-05T15:55:23.793Z,14.95
2022-11-05T15:57:59.852Z,17.02
2022-11-05T16:00:46.993Z,21.38
2022-11-05T16:03:27.587Z,19.05
2022-11-05T16:06:01.493Z,18.90
2022-11-05T16:08:34.053Z,19.52
2022-11-05T16:11:06.452Z,20.23
2022-11-05T16:13:41.241Z,21.55
2022-11-05T16:16:25.679Z,20.80
2022-11-05T16:18:58.132Z,16.35
2022-11-05T16:21:30.588Z,26.33
2022-11-05T16:24:03.216Z,25.33
2022-11-05T16:29:33.920Z,24.48
2022-11-05T16:32:15.798Z,24.05
2022-11-05T16:34:50.628Z,28.95
2022-11-05T16:37:25.740Z,35.08
2022-11-05T16:39:58.127Z,28.67
2022-11-05T16:42:39.088Z,23.52
2022-11-05T16:45:14.094Z,25.63
2022-11-05T16:47:46.917Z,30.70
2022-11-05T16:50:23.424Z,39.75
2022-11-05T16:52:55.788Z,33.95
2022-11-05T16:55:28.630Z,36.22
2022-11-05T16:58:01.099Z,35.92
2022-11-05T17:00:34.310Z,40.20
2022-11-05T17:03:06.710Z,33.13
2022-11-05T17:05:39.122Z,35.88
2022-11-05T17:08:11.948Z,35.63
2022-11-05T17:10:44.642Z,42.50
2022-11-05T17:13:18.297Z,42.63
2022-11-05T17:15:51.678Z,39.60
2022-11-05T17:18:24.595Z,35.58
2022-11-05T17:20:57.237Z,39.70
2022-11-05T17:23:31.859Z,37.90
2022-11-05T17:26:06.733Z,34.75
2022-11-05T17:28:40.279Z,34.90
2022-11-05T17:31:13.724Z,38.60
2022-11-05T17:33:46.088Z,42.72
2022-11-05T17:36:18.424Z,36.83
2022-11-05T17:38:51.360Z,36.03
2022-11-05T17:41:24.499Z,35.08
2022-11-05T17:43:57.666Z,33.67
2022-11-05T17:46:30.708Z,38.20
2022-11-05T17:49:03.272Z,39.88
2022-11-05T17:51:35.644Z,39.88
2022-11-05T17:54:08.102Z,39.58
2022-11-05T17:56:44.727Z,32.35
2022-11-05T17:59:17.378Z,23.63
2022-11-05T18:01:50.516Z,23.98
2022-11-05T18:04:23.103Z,39.97
2022-11-05T18:06:55.414Z,40.10
2022-11-05T18:09:27.924Z,41.95
2022-11-05T18:12:00.305Z,41.55
2022-11-05T18:14:32.825Z,36.65
2022-11-05T18:17:05.864Z,40.00
2022-11-05T18:19:39.049Z,38.25
2022-11-05T18:22:11.484Z,39.00
2022-11-05T18:24:43.891Z,36.80
2022-11-05T18:27:16.230Z,34.20
2022-11-05T18:29:48.670Z,28.50
2022-11-05T18:32:21.733Z,27.58
2022-11-05T18:34:54.125Z,25.10
2022-11-05T18:37:26.657Z,32.53
2022-11-05T18:39:58.996Z,32.40
2022-11-05T18:42:31.425Z,30.25
2022-11-05T18:45:05.331Z,28.20
2022-11-05T18:47:38.391Z,36.35
2022-11-05T18:50:10.889Z,36.53
2022-11-05T18:52:43.717Z,33.88
2022-11-05T18:55:16.177Z,33.35
2022-11-05T18:57:48.602Z,29.73
2022-11-05T19:00:20.992Z,30.08
2022-11-05T19:02:54.593Z,29.05
2022-11-05T19:05:29.704Z,27.48
2022-11-05T19:08:02.559Z,24.48
2022-11-05T19:10:34.993Z,24.88
2022-11-05T19:13:07.341Z,25.75
2022-11-05T19:15:41.769Z,28.73
2022-11-05T19:18:15.014Z,26.52
2022-11-05T19:20:47.518Z,28.05
2022-11-05T19:23:19.869Z,27.58
2022-11-05T19:25:52.278Z,28.25
2022-11-05T19:28:24.653Z,30.02
2022-11-05T19:30:57.050Z,27.00
2022-11-05T19:33:30.437Z,27.50
2022-11-05T19:36:05.072Z,34.28
2022-11-05T19:38:38.058Z,33.92
2022-11-05T19:41:13.310Z,31.98
2022-11-05T19:43:46.122Z,30.13
2022-11-05T19:46:20.386Z,35.97
2022-11-05T19:48:53.829Z,31.58
2022-11-05T19:51:28.996Z,28.58
2022-11-05T19:54:02.628Z,23.27
2022-11-05T19:56:37.638Z,25.45
2022-11-05T19:59:11.452Z,23.05
2022-11-05T20:01:44.110Z,19.40
2022-11-05T20:04:17.321Z,22.75
2022-11-05T20:06:49.754Z,25.73
2022-11-05T20:09:23.146Z,25.67
2022-11-05T20:11:56.518Z,22.35
2022-11-05T20:14:29.377Z,28.63
2022-11-05T20:17:01.759Z,33.38
2022-11-05T20:19:34.850Z,32.05
2022-11-05T20:22:07.226Z,30.85
2022-11-05T20:24:39.553Z,32.60
2022-11-05T20:27:11.923Z,35.55
2022-11-05T20:29:44.277Z,34.13
2022-11-05T20:32:16.664Z,32.55
2022-11-05T20:34:49.761Z,28.90
2022-11-05T20:37:22.502Z,26.98
2022-11-05T20:39:55.050Z,27.52
2022-11-05T20:42:27.422Z,27.33
2022-11-05T20:44:59.986Z,27.15
2022-11-05T20:47:32.515Z,33.03
2022-11-05T20:50:07.519Z,25.83
2022-11-05T20:52:40.324Z,21.83
2022-11-05T20:55:12.637Z,25.85
2022-11-05T20:57:44.977Z,31.48
2022-11-05T21:00:17.852Z,34.80
2022-11-05T21:02:50.447Z,32.55
2022-11-05T21:05:23.609Z,63.20
2022-11-05T21:07:56.561Z,54.47
2022-11-05T21:10:29.464Z,51.13
2022-11-05T21:13:01.826Z,35.38
2022-11-05T21:15:34.200Z,22.27
2022-11-05T21:18:06.649Z,16.92
2022-11-05T21:20:39.880Z,24.55
2022-11-05T21:23:13.274Z,36.58
2022-11-05T21:25:46.002Z,38.85
2022-11-05T21:28:18.470Z,35.38
2022-11-05T21:30:50.810Z,28.48
2022-11-05T21:33:23.218Z,21.42
2022-11-05T21:35:56.698Z,29.83
2022-11-05T21:38:29.165Z,23.90
2022-11-05T21:41:02.665Z,24.88
2022-11-05T21:43:35.159Z,33.03
2022-11-05T21:46:07.493Z,36.22
2022-11-05T21:48:40.025Z,38.60
2022-11-05T21:51:31.653Z,31.08
2022-11-05T21:54:22.443Z,36.92
2022-11-05T21:57:13.416Z,36.10
2022-11-05T21:59:48.911Z,37.17
2022-11-05T22:02:23.205Z,35.30
2022-11-05T22:04:59.133Z,33.30
2022-11-05T22:07:34.644Z,31.35
2022-11-05T22:10:14.643Z,27.30
2022-11-05T22:12:48.366Z,30.17
2022-11-05T22:15:20.770Z,30.65
2022-11-05T22:17:53.131Z,28.63
2022-11-05T22:20:25.572Z,29.63
2022-11-05T22:22:58.611Z,28.35
2022-11-05T22:25:31.033Z,27.92
2022-11-05T22:28:03.663Z,23.88
2022-11-05T22:30:36.237Z,35.13
2022-11-05T22:33:08.531Z,37.00
2022-11-05T22:35:40.962Z,37.88
2022-11-05T22:38:14.290Z,30.98
2022-11-05T22:40:46.863Z,32.38
2022-11-05T22:43:19.225Z,30.40
2022-11-05T22:45:51.596Z,30.77
2022-11-05T22:48:23.926Z,28.38
2022-11-05T22:51:01.676Z,25.00
2022-11-05T22:53:36.445Z,24.92
2022-11-05T22:56:12.563Z,20.10
2022-11-05T22:58:45.273Z,16.80
2022-11-05T23:01:18.671Z,14.95
2022-11-05T23:03:52.969Z,14.60
2022-11-05T23:06:45.748Z,15.32
2022-11-05T23:09:38.685Z,21.80
2022-11-05T23:12:21.505Z,26.77
2022-11-05T23:14:55.648Z,26.23
2022-11-05T23:17:46.954Z,24.50
2022-11-05T23:20:39.103Z,26.88
2022-11-05T23:23:30.757Z,25.33
2022-11-05T23:26:24.321Z,28.13
2022-11-05T23:28:56.685Z,27.23
2022-11-05T23:31:47.110Z,25.38
2022-11-05T23:34:19.468Z,20.35
2022-11-05T23:37:11.877Z,22.17
2022-11-05T23:39:44.302Z,23.55
2022-11-05T23:42:35.333Z,22.80
2022-11-05T23:45:27.515Z,20.50
2022-11-05T23:48:18.443Z,20.67
2022-11-05T23:50:56.677Z,23.30
2022-11-05T23:53:30.713Z,18.98
2022-11-05T23:56:06.740Z,21.52
2022-11-05T23:58:41.273Z,28.27
